Terminal Aerodrome Forecast
Issued by NWS Jackson, KY

Home | Current Version | Previous Version | Text Only | Print | Product List | Glossary On
Versions: 1 2 3 4 5 6 7 8 9 10 11 12 13 14 15 16 17 18 19 20 21 22
000
FTUS43 KJKL 150500
TAFLOZ
TAF
KLOZ 150537Z 1506/1606 00000KT P6SM SKC
     FM150700 00000KT 4SM BR SKC
     FM151100 00000KT 2SM BR OVC100
     FM151400 25006KT P6SM FEW040 SCT100 BKN250=

USA.gov is the U.S. government's official web portal to all federal, state and local government web resources and services.